sensor_id;sensor_type;location;lat;lon;timestamp;temperature;humidity
5492;DHT22;2768;53.540;10.224;2024-01-11T00:00:34;-0.70;99.90
5492;DHT22;2768;53.540;10.224;2024-01-11T00:06:27;-0.60;99.90
5492;DHT22;2768;53.540;10.224;2024-01-11T00:12:21;-0.50;99.90
5492;DHT22;2768;53.540;10.224;2024-01-11T00:18:15;-0.60;99.90
5492;DHT22;2768;53.540;10.224;2024-01-11T00:24:09;-0.50;99.90
5492;DHT22;2768;53.540;10.224;2024-01-11T00:30:04;-0.80;99.90
5492;DHT22;2768;53.540;10.224;2024-01-11T00:35:59;-0.70;99.90
5492;DHT22;2768;53.540;10.224;2024-01-11T00:41:52;-0.70;99.90
5492;DHT22;2768;53.540;10.224;2024-01-11T00:47:47;-0.60;99.90
5492;DHT22;2768;53.540;10.224;2024-01-11T00:53:41;-0.70;99.90
5492;DHT22;2768;53.540;10.224;2024-01-11T00:59:35;-0.70;99.90
5492;DHT22;2768;53.540;10.224;2024-01-11T01:05:28;-0.70;99.90
5492;DHT22;2768;53.540;10.224;2024-01-11T01:11:23;-0.70;99.90
5492;DHT22;2768;53.540;10.224;2024-01-11T01:17:16;-0.70;99.90
5492;DHT22;2768;53.540;10.224;2024-01-11T01:23:10;-0.80;99.90
5492;DHT22;2768;53.540;10.224;2024-01-11T01:29:04;-0.90;99.90
5492;DHT22;2768;53.540;10.224;2024-01-11T01:34:58;-0.90;99.90
5492;DHT22;2768;53.540;10.224;2024-01-11T01:40:52;-0.90;99.90
5492;DHT22;2768;53.540;10.224;2024-01-11T01:46:47;-1.00;99.90
5492;DHT22;2768;53.540;10.224;2024-01-11T01:52:42;-1.00;99.90
5492;DHT22;2768;53.540;10.224;2024-01-11T01:58:36;-1.10;99.90
5492;DHT22;2768;53.540;10.224;2024-01-11T02:04:39;-1.00;99.90
5492;DHT22;2768;53.540;10.224;2024-01-11T02:10:39;-1.00;99.90
5492;DHT22;2768;53.540;10.224;2024-01-11T02:16:33;-1.00;99.90
5492;DHT22;2768;53.540;10.224;2024-01-11T02:22:32;-0.90;99.90
5492;DHT22;2768;53.540;10.224;2024-01-11T02:28:29;-0.80;99.90
5492;DHT22;2768;53.540;10.224;2024-01-11T02:34:22;-0.80;99.90
5492;DHT22;2768;53.540;10.224;2024-01-11T02:40:18;-0.70;99.90
5492;DHT22;2768;53.540;10.224;2024-01-11T02:46:13;-0.80;99.90
5492;DHT22;2768;53.540;10.224;2024-01-11T02:52:07;-0.80;99.90
5492;DHT22;2768;53.540;10.224;2024-01-11T02:58:00;-0.70;99.90
5492;DHT22;2768;53.540;10.224;2024-01-11T03:03:56;-0.80;99.90
5492;DHT22;2768;53.540;10.224;2024-01-11T03:09:50;-0.70;99.90
5492;DHT22;2768;53.540;10.224;2024-01-11T03:15:43;-0.70;99.90
5492;DHT22;2768;53.540;10.224;2024-01-11T03:21:43;-0.70;99.90
5492;DHT22;2768;53.540;10.224;2024-01-11T03:27:36;-0.80;99.90
5492;DHT22;2768;53.540;10.224;2024-01-11T03:33:29;-0.80;99.90
5492;DHT22;2768;53.540;10.224;2024-01-11T03:39:25;-0.80;99.90
5492;DHT22;2768;53.540;10.224;2024-01-11T03:45:18;-0.70;99.90
5492;DHT22;2768;53.540;10.224;2024-01-11T03:51:12;-0.70;99.90
5492;DHT22;2768;53.540;10.224;2024-01-11T03:57:07;-0.70;99.90
5492;DHT22;2768;53.540;10.224;2024-01-11T04:03:00;-0.80;99.90
5492;DHT22;2768;53.540;10.224;2024-01-11T04:08:54;-0.70;99.90
5492;DHT22;2768;53.540;10.224;2024-01-11T04:14:50;-0.60;99.90
5492;DHT22;2768;53.540;10.224;2024-01-11T04:20:43;-0.60;99.90
5492;DHT22;2768;53.540;10.224;2024-01-11T04:26:36;-0.70;99.90
5492;DHT22;2768;53.540;10.224;2024-01-11T04:32:31;-0.60;99.90
5492;DHT22;2768;53.540;10.224;2024-01-11T04:38:25;-0.60;99.90
5492;DHT22;2768;53.540;10.224;2024-01-11T04:44:18;-0.50;99.90
5492;DHT22;2768;53.540;10.224;2024-01-11T04:50:13;-0.60;99.90
5492;DHT22;2768;53.540;10.224;2024-01-11T04:56:06;-0.60;99.90
5492;DHT22;2768;53.540;10.224;2024-01-11T05:02:00;-0.50;99.90
5492;DHT22;2768;53.540;10.224;2024-01-11T05:07:55;-0.60;99.90
5492;DHT22;2768;53.540;10.224;2024-01-11T05:13:48;-0.80;99.90
5492;DHT22;2768;53.540;10.224;2024-01-11T05:19:41;-0.80;99.90
5492;DHT22;2768;53.540;10.224;2024-01-11T05:25:36;-0.70;99.90
5492;DHT22;2768;53.540;10.224;2024-01-11T05:31:29;-0.90;99.90
5492;DHT22;2768;53.540;10.224;2024-01-11T05:37:23;-0.90;99.90
5492;DHT22;2768;53.540;10.224;2024-01-11T05:43:17;-0.80;99.90
5492;DHT22;2768;53.540;10.224;2024-01-11T05:49:10;-0.60;99.90
5492;DHT22;2768;53.540;10.224;2024-01-11T05:55:04;-0.60;99.90
5492;DHT22;2768;53.540;10.224;2024-01-11T06:00:59;-0.50;99.90
5492;DHT22;2768;53.540;10.224;2024-01-11T06:06:52;-0.60;99.90
5492;DHT22;2768;53.540;10.224;2024-01-11T06:12:46;-0.50;99.90
5492;DHT22;2768;53.540;10.224;2024-01-11T06:18:40;-0.50;99.90
5492;DHT22;2768;53.540;10.224;2024-01-11T06:24:34;-0.50;99.90
5492;DHT22;2768;53.540;10.224;2024-01-11T06:30:27;-0.60;99.90
5492;DHT22;2768;53.540;10.224;2024-01-11T06:36:21;-0.60;99.90
5492;DHT22;2768;53.540;10.224;2024-01-11T06:42:15;-0.60;99.90
5492;DHT22;2768;53.540;10.224;2024-01-11T06:48:14;-0.50;99.90
5492;DHT22;2768;53.540;10.224;2024-01-11T06:54:09;-0.60;99.90
5492;DHT22;2768;53.540;10.224;2024-01-11T07:00:03;-0.60;99.90
5492;DHT22;2768;53.540;10.224;2024-01-11T07:05:57;-0.50;99.90
5492;DHT22;2768;53.540;10.224;2024-01-11T07:11:52;-0.50;99.90
5492;DHT22;2768;53.540;10.224;2024-01-11T07:17:45;-0.40;99.90
5492;DHT22;2768;53.540;10.224;2024-01-11T07:23:39;-0.50;99.90
5492;DHT22;2768;53.540;10.224;2024-01-11T07:29:33;-0.60;99.90
5492;DHT22;2768;53.540;10.224;2024-01-11T07:35:27;-0.60;99.90
5492;DHT22;2768;53.540;10.224;2024-01-11T07:41:21;-0.50;99.90
5492;DHT22;2768;53.540;10.224;2024-01-11T07:47:16;-0.40;99.90
5492;DHT22;2768;53.540;10.224;2024-01-11T07:53:09;-0.40;99.90
5492;DHT22;2768;53.540;10.224;2024-01-11T07:59:03;-0.40;99.90
5492;DHT22;2768;53.540;10.224;2024-01-11T08:04:58;-0.20;99.90
5492;DHT22;2768;53.540;10.224;2024-01-11T08:10:51;-0.20;99.90
5492;DHT22;2768;53.540;10.224;2024-01-11T08:16:44;-0.10;99.90
5492;DHT22;2768;53.540;10.224;2024-01-11T08:22:41;-0.20;99.90
5492;DHT22;2768;53.540;10.224;2024-01-11T08:28:35;-0.10;99.90
5492;DHT22;2768;53.540;10.224;2024-01-11T08:34:28;-0.10;99.90
5492;DHT22;2768;53.540;10.224;2024-01-11T08:40:23;-0.10;99.90
5492;DHT22;2768;53.540;10.224;2024-01-11T08:46:23;-0.10;99.90
5492;DHT22;2768;53.540;10.224;2024-01-11T08:52:17;0.00;99.90
5492;DHT22;2768;53.540;10.224;2024-01-11T08:58:11;0.00;99.90
5492;DHT22;2768;53.540;10.224;2024-01-11T09:04:05;0.00;99.90
5492;DHT22;2768;53.540;10.224;2024-01-11T09:09:58;0.10;99.90
5492;DHT22;2768;53.540;10.224;2024-01-11T09:15:53;0.10;99.90
5492;DHT22;2768;53.540;10.224;2024-01-11T09:21:47;0.10;99.90
5492;DHT22;2768;53.540;10.224;2024-01-11T09:27:40;0.20;99.90
5492;DHT22;2768;53.540;10.224;2024-01-11T09:33:34;0.10;99.90
5492;DHT22;2768;53.540;10.224;2024-01-11T09:39:28;0.30;99.90
5492;DHT22;2768;53.540;10.224;2024-01-11T09:45:21;0.30;99.90
5492;DHT22;2768;53.540;10.224;2024-01-11T09:51:16;0.30;99.90
5492;DHT22;2768;53.540;10.224;2024-01-11T09:57:09;0.40;99.90
5492;DHT22;2768;53.540;10.224;2024-01-11T10:03:04;0.50;99.90
5492;DHT22;2768;53.540;10.224;2024-01-11T10:08:59;0.50;99.90
5492;DHT22;2768;53.540;10.224;2024-01-11T10:14:52;0.40;99.90
5492;DHT22;2768;53.540;10.224;2024-01-11T10:20:48;0.40;99.90
5492;DHT22;2768;53.540;10.224;2024-01-11T10:26:46;0.40;99.90
5492;DHT22;2768;53.540;10.224;2024-01-11T10:32:39;0.40;99.90
5492;DHT22;2768;53.540;10.224;2024-01-11T10:38:35;0.50;99.90
5492;DHT22;2768;53.540;10.224;2024-01-11T10:44:33;0.50;99.90
5492;DHT22;2768;53.540;10.224;2024-01-11T10:50:30;0.60;99.90
5492;DHT22;2768;53.540;10.224;2024-01-11T10:56:26;0.70;99.90
5492;DHT22;2768;53.540;10.224;2024-01-11T11:02:21;0.70;99.90
5492;DHT22;2768;53.540;10.224;2024-01-11T11:08:15;0.80;99.90
5492;DHT22;2768;53.540;10.224;2024-01-11T11:14:10;0.90;99.90
5492;DHT22;2768;53.540;10.224;2024-01-11T11:20:10;0.90;99.90
5492;DHT22;2768;53.540;10.224;2024-01-11T11:26:06;0.90;99.90
5492;DHT22;2768;53.540;10.224;2024-01-11T11:32:02;0.90;99.90
5492;DHT22;2768;53.540;10.224;2024-01-11T11:37:58;0.90;99.90
5492;DHT22;2768;53.540;10.224;2024-01-11T11:43:51;0.90;99.90
5492;DHT22;2768;53.540;10.224;2024-01-11T11:50:03;1.10;99.90
5492;DHT22;2768;53.540;10.224;2024-01-11T11:55:58;1.10;99.90
5492;DHT22;2768;53.540;10.224;2024-01-11T12:01:52;1.10;99.90
5492;DHT22;2768;53.540;10.224;2024-01-11T12:07:49;1.10;99.90
5492;DHT22;2768;53.540;10.224;2024-01-11T12:13:46;1.20;99.90
5492;DHT22;2768;53.540;10.224;2024-01-11T12:19:39;1.20;99.90
5492;DHT22;2768;53.540;10.224;2024-01-11T12:25:32;1.30;99.90
5492;DHT22;2768;53.540;10.224;2024-01-11T12:31:27;1.30;99.90
5492;DHT22;2768;53.540;10.224;2024-01-11T12:37:21;1.30;99.90
5492;DHT22;2768;53.540;10.224;2024-01-11T12:43:15;1.30;99.90
5492;DHT22;2768;53.540;10.224;2024-01-11T12:49:11;1.40;99.90
5492;DHT22;2768;53.540;10.224;2024-01-11T12:55:06;1.50;99.90
5492;DHT22;2768;53.540;10.224;2024-01-11T13:01:00;1.50;99.90
5492;DHT22;2768;53.540;10.224;2024-01-11T13:06:54;1.40;99.90
5492;DHT22;2768;53.540;10.224;2024-01-11T13:12:48;1.50;99.90
5492;DHT22;2768;53.540;10.224;2024-01-11T13:18:51;1.50;99.90
5492;DHT22;2768;53.540;10.224;2024-01-11T13:24:46;1.60;99.90
5492;DHT22;2768;53.540;10.224;2024-01-11T13:30:40;1.70;99.90
5492;DHT22;2768;53.540;10.224;2024-01-11T13:36:33;1.70;99.90
5492;DHT22;2768;53.540;10.224;2024-01-11T13:42:28;1.70;99.90
5492;DHT22;2768;53.540;10.224;2024-01-11T13:48:21;1.70;99.90
5492;DHT22;2768;53.540;10.224;2024-01-11T13:54:14;1.70;99.90
5492;DHT22;2768;53.540;10.224;2024-01-11T14:00:10;1.80;99.90
5492;DHT22;2768;53.540;10.224;2024-01-11T14:06:04;1.70;99.90
5492;DHT22;2768;53.540;10.224;2024-01-11T14:11:58;1.70;99.90
5492;DHT22;2768;53.540;10.224;2024-01-11T14:17:52;1.80;99.90
5492;DHT22;2768;53.540;10.224;2024-01-11T14:23:46;1.90;99.90
5492;DHT22;2768;53.540;10.224;2024-01-11T14:29:40;1.90;99.90
5492;DHT22;2768;53.540;10.224;2024-01-11T14:35:34;1.90;99.90
5492;DHT22;2768;53.540;10.224;2024-01-11T14:41:27;1.90;99.90
5492;DHT22;2768;53.540;10.224;2024-01-11T14:47:21;1.80;99.90
5492;DHT22;2768;53.540;10.224;2024-01-11T14:53:16;1.90;99.90
5492;DHT22;2768;53.540;10.224;2024-01-11T14:59:10;1.90;99.90
5492;DHT22;2768;53.540;10.224;2024-01-11T15:05:04;1.80;99.90
5492;DHT22;2768;53.540;10.224;2024-01-11T15:10:59;1.80;99.90
5492;DHT22;2768;53.540;10.224;2024-01-11T15:16:52;1.80;99.90
5492;DHT22;2768;53.540;10.224;2024-01-11T15:22:45;1.80;99.90
5492;DHT22;2768;53.540;10.224;2024-01-11T15:28:40;1.80;99.90
5492;DHT22;2768;53.540;10.224;2024-01-11T15:34:34;1.80;99.90
5492;DHT22;2768;53.540;10.224;2024-01-11T15:40:27;1.90;99.90
5492;DHT22;2768;53.540;10.224;2024-01-11T15:46:22;1.80;99.90
5492;DHT22;2768;53.540;10.224;2024-01-11T15:52:15;1.80;99.90
5492;DHT22;2768;53.540;10.224;2024-01-11T15:58:08;1.80;99.90
5492;DHT22;2768;53.540;10.224;2024-01-11T16:04:04;1.80;99.90
5492;DHT22;2768;53.540;10.224;2024-01-11T16:09:57;1.90;99.90
5492;DHT22;2768;53.540;10.224;2024-01-11T16:15:50;1.80;99.90
5492;DHT22;2768;53.540;10.224;2024-01-11T16:21:49;1.90;99.90
5492;DHT22;2768;53.540;10.224;2024-01-11T16:27:42;1.90;99.90
5492;DHT22;2768;53.540;10.224;2024-01-11T16:33:35;1.90;99.90
5492;DHT22;2768;53.540;10.224;2024-01-11T16:39:30;1.90;99.90
5492;DHT22;2768;53.540;10.224;2024-01-11T16:45:23;1.90;99.90
5492;DHT22;2768;53.540;10.224;2024-01-11T16:51:16;2.00;99.90
5492;DHT22;2768;53.540;10.224;2024-01-11T16:57:11;1.90;99.90
5492;DHT22;2768;53.540;10.224;2024-01-11T17:03:04;1.90;99.90
5492;DHT22;2768;53.540;10.224;2024-01-11T17:08:59;1.90;99.90
5492;DHT22;2768;53.540;10.224;2024-01-11T17:14:54;1.90;99.90
5492;DHT22;2768;53.540;10.224;2024-01-11T17:20:49;1.80;99.90
5492;DHT22;2768;53.540;10.224;2024-01-11T17:26:42;1.80;99.90
5492;DHT22;2768;53.540;10.224;2024-01-11T17:32:37;1.80;99.90
5492;DHT22;2768;53.540;10.224;2024-01-11T17:38:31;1.80;99.90
5492;DHT22;2768;53.540;10.224;2024-01-11T17:44:25;1.80;99.90
5492;DHT22;2768;53.540;10.224;2024-01-11T17:50:20;1.70;99.90
5492;DHT22;2768;53.540;10.224;2024-01-11T17:56:14;1.60;99.90
5492;DHT22;2768;53.540;10.224;2024-01-11T18:02:09;1.60;99.90
5492;DHT22;2768;53.540;10.224;2024-01-11T18:08:04;1.70;99.90
5492;DHT22;2768;53.540;10.224;2024-01-11T18:13:57;1.70;99.90
5492;DHT22;2768;53.540;10.224;2024-01-11T18:19:51;1.50;99.90
5492;DHT22;2768;53.540;10.224;2024-01-11T18:25:46;1.60;99.90
5492;DHT22;2768;53.540;10.224;2024-01-11T18:31:39;1.60;99.90
5492;DHT22;2768;53.540;10.224;2024-01-11T18:37:33;1.60;99.90
5492;DHT22;2768;53.540;10.224;2024-01-11T18:43:27;1.50;99.90
5492;DHT22;2768;53.540;10.224;2024-01-11T18:49:20;1.60;99.90
5492;DHT22;2768;53.540;10.224;2024-01-11T18:55:14;1.60;99.90
5492;DHT22;2768;53.540;10.224;2024-01-11T19:01:10;1.40;99.90
5492;DHT22;2768;53.540;10.224;2024-01-11T19:07:04;1.40;99.90
5492;DHT22;2768;53.540;10.224;2024-01-11T19:12:57;1.30;99.90
5492;DHT22;2768;53.540;10.224;2024-01-11T19:18:52;1.20;99.90
5492;DHT22;2768;53.540;10.224;2024-01-11T19:24:46;1.20;99.90
5492;DHT22;2768;53.540;10.224;2024-01-11T19:30:39;1.20;99.90
5492;DHT22;2768;53.540;10.224;2024-01-11T19:36:38;1.20;99.90
5492;DHT22;2768;53.540;10.224;2024-01-11T19:42:32;1.30;99.90
5492;DHT22;2768;53.540;10.224;2024-01-11T19:48:25;1.30;99.90
5492;DHT22;2768;53.540;10.224;2024-01-11T19:54:20;1.30;99.90
5492;DHT22;2768;53.540;10.224;2024-01-11T20:00:14;1.30;99.90
5492;DHT22;2768;53.540;10.224;2024-01-11T20:06:08;1.30;99.90
5492;DHT22;2768;53.540;10.224;2024-01-11T20:12:03;1.30;99.90
5492;DHT22;2768;53.540;10.224;2024-01-11T20:17:57;1.20;99.90
5492;DHT22;2768;53.540;10.224;2024-01-11T20:23:50;1.10;99.90
5492;DHT22;2768;53.540;10.224;2024-01-11T20:29:45;1.10;99.90
5492;DHT22;2768;53.540;10.224;2024-01-11T20:35:39;1.00;99.90
5492;DHT22;2768;53.540;10.224;2024-01-11T20:41:32;0.90;99.90
5492;DHT22;2768;53.540;10.224;2024-01-11T20:47:27;0.90;99.90
5492;DHT22;2768;53.540;10.224;2024-01-11T20:53:20;0.70;99.90
5492;DHT22;2768;53.540;10.224;2024-01-11T20:59:14;0.70;99.90
5492;DHT22;2768;53.540;10.224;2024-01-11T21:05:09;0.60;99.90
5492;DHT22;2768;53.540;10.224;2024-01-11T21:11:03;0.80;99.90
5492;DHT22;2768;53.540;10.224;2024-01-11T21:16:56;0.60;99.90
5492;DHT22;2768;53.540;10.224;2024-01-11T21:22:50;0.50;99.90
5492;DHT22;2768;53.540;10.224;2024-01-11T21:28:44;0.30;99.90
5492;DHT22;2768;53.540;10.224;2024-01-11T21:34:41;0.50;99.90
5492;DHT22;2768;53.540;10.224;2024-01-11T21:40:36;0.40;99.90
5492;DHT22;2768;53.540;10.224;2024-01-11T21:46:32;0.60;99.90
5492;DHT22;2768;53.540;10.224;2024-01-11T21:52:25;0.50;99.90
5492;DHT22;2768;53.540;10.224;2024-01-11T21:58:20;0.50;99.90
5492;DHT22;2768;53.540;10.224;2024-01-11T22:04:14;0.50;99.90
5492;DHT22;2768;53.540;10.224;2024-01-11T22:10:08;0.60;99.90
5492;DHT22;2768;53.540;10.224;2024-01-11T22:16:03;0.40;99.90
5492;DHT22;2768;53.540;10.224;2024-01-11T22:21:57;0.20;99.90
5492;DHT22;2768;53.540;10.224;2024-01-11T22:27:51;0.30;99.90
5492;DHT22;2768;53.540;10.224;2024-01-11T22:33:45;0.40;99.90
5492;DHT22;2768;53.540;10.224;2024-01-11T22:39:39;0.30;99.90
5492;DHT22;2768;53.540;10.224;2024-01-11T22:45:33;0.30;99.90
5492;DHT22;2768;53.540;10.224;2024-01-11T22:51:28;0.30;99.90
5492;DHT22;2768;53.540;10.224;2024-01-11T22:57:21;0.20;99.90
5492;DHT22;2768;53.540;10.224;2024-01-11T23:03:14;0.30;99.90
5492;DHT22;2768;53.540;10.224;2024-01-11T23:09:09;0.20;99.90
5492;DHT22;2768;53.540;10.224;2024-01-11T23:15:04;0.10;99.90
5492;DHT22;2768;53.540;10.224;2024-01-11T23:20:57;0.10;99.90
5492;DHT22;2768;53.540;10.224;2024-01-11T23:26:52;0.10;99.90
5492;DHT22;2768;53.540;10.224;2024-01-11T23:32:45;0.10;99.90
5492;DHT22;2768;53.540;10.224;2024-01-11T23:38:39;0.20;99.90
5492;DHT22;2768;53.540;10.224;2024-01-11T23:44:34;0.30;99.90
5492;DHT22;2768;53.540;10.224;2024-01-11T23:50:27;-0.10;99.90
5492;DHT22;2768;53.540;10.224;2024-01-11T23:56:20;-0.10;99.90
